Terminal Aerodrome Forecast
Issued by NWS Goodland, KS

Home | Current Version | Previous Version | Text Only | Print | Product List | Glossary On
Versions: 1 2 3 4 5 6 7 8 9 10 11 12 13 14
000
FTUS43 KGLD 302321
TAFGLD
TAF
KGLD 302321Z 0100/0124 VRB05KT P6SM BKN100
     FM010900 33007KT P6SM SCT100
     FM011500 01011KT P6SM SCT070 BKN250=

USA.gov is the U.S. government's official web portal to all federal, state and local government web resources and services.